createdAt,value
2018-04-08T00:02:18.370Z,88.20
2018-04-08T00:04:45.809Z,88.10
2018-04-08T00:07:14.033Z,87.60
2018-04-08T00:09:41.474Z,87.60
2018-04-08T00:12:08.922Z,87.60
2018-04-08T00:14:36.378Z,87.30
2018-04-08T00:17:03.855Z,86.90
2018-04-08T00:19:31.324Z,86.80
2018-04-08T00:21:58.781Z,88.20
2018-04-08T00:24:26.254Z,89.80
2018-04-08T00:26:53.712Z,90.30
2018-04-08T00:29:21.929Z,90.00
2018-04-08T00:31:49.378Z,90.00
2018-04-08T00:34:17.601Z,90.10
2018-04-08T00:36:45.815Z,90.00
2018-04-08T00:39:13.258Z,90.00
2018-04-08T00:41:40.732Z,89.70
2018-04-08T00:44:08.194Z,88.70
2018-04-08T00:46:35.656Z,88.30
2018-04-08T00:49:03.114Z,88.50
2018-04-08T00:51:30.582Z,89.60
2018-04-08T00:57:01.869Z,90.70
2018-04-08T00:59:29.320Z,90.80
2018-04-08T01:01:56.773Z,90.80
2018-04-08T01:04:24.231Z,90.80
2018-04-08T01:06:51.716Z,90.50
2018-04-08T01:09:19.160Z,90.20
2018-04-08T01:11:46.598Z,90.60
2018-04-08T01:14:14.055Z,91.10
2018-04-08T01:16:41.510Z,90.80
2018-04-08T01:19:09.744Z,91.00
2018-04-08T01:21:37.178Z,90.70
2018-04-08T01:24:04.636Z,90.80
2018-04-08T01:26:32.103Z,91.10
2018-04-08T01:31:33.548Z,91.50
2018-04-08T01:34:01.772Z,91.50
2018-04-08T01:36:29.214Z,91.40
2018-04-08T01:38:56.702Z,91.40
2018-04-08T01:41:24.903Z,91.40
2018-04-08T01:43:52.356Z,91.40
2018-04-08T01:46:19.803Z,91.50
2018-04-08T01:48:47.258Z,91.30
2018-04-08T01:51:14.713Z,91.50
2018-04-08T01:53:42.170Z,91.70
2018-04-08T01:56:09.619Z,91.60
2018-04-08T01:58:37.097Z,91.70
2018-04-08T02:01:04.564Z,91.90
2018-04-08T02:03:32.024Z,91.90
2018-04-08T02:05:59.476Z,91.60
2018-04-08T02:08:26.925Z,91.50
2018-04-08T02:10:54.378Z,91.30
2018-04-08T02:13:21.854Z,91.50
2018-04-08T02:15:49.309Z,91.80
2018-04-08T02:18:16.776Z,91.90
2018-04-08T02:20:44.219Z,91.90
2018-04-08T02:23:11.666Z,92.20
2018-04-08T02:25:39.880Z,91.60
2018-04-08T02:28:07.331Z,91.60
2018-04-08T02:33:08.574Z,92.00
2018-04-08T02:35:36.822Z,91.90
2018-04-08T02:38:04.273Z,91.90
2018-04-08T02:40:31.740Z,91.80
2018-04-08T02:42:59.178Z,91.90
2018-04-08T02:45:26.635Z,91.50
2018-04-08T02:47:54.088Z,91.80
2018-04-08T02:50:21.556Z,91.80
2018-04-08T02:52:49.018Z,91.10
2018-04-08T02:55:16.463Z,90.90
2018-04-08T02:57:43.916Z,91.10
2018-04-08T03:00:12.147Z,91.30
2018-04-08T03:02:39.589Z,91.30
2018-04-08T03:05:07.045Z,91.40
2018-04-08T03:07:34.496Z,92.10
2018-04-08T03:10:01.949Z,92.20
2018-04-08T03:12:30.150Z,93.10
2018-04-08T03:14:57.593Z,93.10
2018-04-08T03:17:25.798Z,92.70
2018-04-08T03:19:53.247Z,92.70
2018-04-08T03:22:20.695Z,93.10
2018-04-08T03:24:48.155Z,93.10
2018-04-08T03:27:16.370Z,92.70
2018-04-08T03:29:43.836Z,92.70
2018-04-08T03:32:11.291Z,93.10
2018-04-08T03:34:38.732Z,93.40
2018-04-08T03:37:06.180Z,93.30
2018-04-08T03:39:34.388Z,92.60
2018-04-08T03:42:01.849Z,92.60
2018-04-08T03:44:29.311Z,92.80
2018-04-08T03:46:56.963Z,93.20
2018-04-08T03:49:24.414Z,93.50
2018-04-08T03:51:52.646Z,93.40
2018-04-08T03:54:20.084Z,93.40
2018-04-08T03:56:47.552Z,93.20
2018-04-08T03:59:14.989Z,93.00
2018-04-08T04:01:42.447Z,93.00
2018-04-08T04:04:10.647Z,93.50
2018-04-08T04:06:38.097Z,93.80
2018-04-08T04:09:05.566Z,93.90
2018-04-08T04:11:33.009Z,94.20
2018-04-08T04:14:00.474Z,93.90
2018-04-08T04:16:28.700Z,94.10
2018-04-08T04:19:08.084Z,94.10
2018-04-08T04:21:48.277Z,94.10
2018-04-08T04:24:27.633Z,94.10
2018-04-08T04:26:55.096Z,94.00
2018-04-08T04:29:22.526Z,94.10
2018-04-08T04:31:49.974Z,94.00
2018-04-08T04:34:17.421Z,94.20
2018-04-08T04:36:45.640Z,94.20
2018-04-08T04:39:13.098Z,94.20
2018-04-08T04:41:40.550Z,94.30
2018-04-08T04:44:08.002Z,93.70
2018-04-08T04:46:35.455Z,92.90
2018-04-08T04:49:03.681Z,93.30
2018-04-08T04:51:31.144Z,93.20
2018-04-08T04:53:58.586Z,94.10
2018-04-08T04:56:26.041Z,93.60
2018-04-08T04:58:53.485Z,94.00
2018-04-08T05:01:20.934Z,94.20
2018-04-08T05:03:49.168Z,94.00
2018-04-08T05:06:16.611Z,94.00
2018-04-08T05:08:44.087Z,94.00
2018-04-08T05:11:12.304Z,94.10
2018-04-08T05:13:39.758Z,94.10
2018-04-08T05:16:07.203Z,94.00
2018-04-08T05:18:34.664Z,93.40
2018-04-08T05:21:02.097Z,93.90
2018-04-08T05:23:29.552Z,94.00
2018-04-08T05:25:57.008Z,94.20
2018-04-08T05:28:25.224Z,94.60
2018-04-08T05:30:52.666Z,94.60
2018-04-08T05:33:20.123Z,94.80
2018-04-08T05:35:47.571Z,94.10
2018-04-08T05:38:15.025Z,94.00
2018-04-08T05:40:43.270Z,94.40
2018-04-08T05:43:10.724Z,94.40
2018-04-08T05:45:38.179Z,94.50
2018-04-08T05:48:05.627Z,94.60
2018-04-08T05:50:33.073Z,94.80
2018-04-08T05:53:00.529Z,94.90
2018-04-08T05:55:27.976Z,95.10
2018-04-08T05:57:56.206Z,95.00
2018-04-08T06:00:23.649Z,95.00
2018-04-08T06:02:51.104Z,94.50
2018-04-08T06:05:18.554Z,94.70
2018-04-08T06:07:46.037Z,94.90
2018-04-08T06:10:13.532Z,94.60
2018-04-08T06:12:40.954Z,94.20
2018-04-08T06:15:09.330Z,94.10
2018-04-08T06:17:36.833Z,93.50
2018-04-08T06:20:04.227Z,93.60
2018-04-08T06:22:32.467Z,94.00
2018-04-08T06:24:59.903Z,94.00
2018-04-08T06:27:27.363Z,93.90
2018-04-08T06:29:54.829Z,94.30
2018-04-08T06:32:22.283Z,94.20
2018-04-08T06:34:49.738Z,94.30
2018-04-08T06:37:17.964Z,93.40
2018-04-08T06:39:45.420Z,93.40
2018-04-08T06:42:12.864Z,92.90
2018-04-08T06:44:40.347Z,93.20
2018-04-08T06:47:07.795Z,92.70
2018-04-08T06:49:36.255Z,93.00
2018-04-08T06:52:03.699Z,92.80
2018-04-08T06:54:31.937Z,92.40
2018-04-08T06:56:59.377Z,92.40
2018-04-08T06:59:26.836Z,92.70
2018-04-08T07:01:54.311Z,92.70
2018-04-08T07:04:21.794Z,93.40
2018-04-08T07:06:49.249Z,93.10
2018-04-08T07:09:16.702Z,93.50
2018-04-08T07:11:44.162Z,93.30
2018-04-08T07:14:16.618Z,93.20
2018-04-08T07:16:44.084Z,92.80
2018-04-08T07:19:11.551Z,92.90
2018-04-08T07:21:39.011Z,93.10
2018-04-08T07:24:06.466Z,92.40
2018-04-08T07:26:33.936Z,92.30
2018-04-08T07:29:01.403Z,92.60
2018-04-08T07:31:28.838Z,92.70
2018-04-08T07:33:57.085Z,92.60
2018-04-08T07:36:24.520Z,92.60
2018-04-08T07:38:51.990Z,92.00
2018-04-08T07:41:19.442Z,91.80
2018-04-08T07:43:46.922Z,92.30
2018-04-08T07:46:14.395Z,92.60
2018-04-08T07:48:41.873Z,92.70
2018-04-08T07:51:10.106Z,91.20
2018-04-08T07:53:37.570Z,91.30
2018-04-08T07:56:05.032Z,91.40
2018-04-08T07:58:32.494Z,91.10
2018-04-08T08:00:59.938Z,91.20
2018-04-08T08:03:27.406Z,91.00
2018-04-08T08:05:54.887Z,91.40
2018-04-08T08:08:22.349Z,91.70
2018-04-08T08:10:49.818Z,92.00
2018-04-08T08:13:17.270Z,91.50
2018-04-08T08:15:44.741Z,91.60
2018-04-08T08:18:12.225Z,91.40
2018-04-08T08:20:40.424Z,91.20
2018-04-08T08:23:08.651Z,91.20
2018-04-08T08:25:36.121Z,91.10
2018-04-08T08:28:03.602Z,91.60
2018-04-08T08:30:31.074Z,90.80
2018-04-08T08:32:58.528Z,90.60
2018-04-08T08:35:25.988Z,90.70
2018-04-08T08:37:53.607Z,90.30
2018-04-08T08:40:21.072Z,90.30
2018-04-08T08:42:48.533Z,89.50
2018-04-08T08:45:16.008Z,87.00
2018-04-08T08:47:43.471Z,88.30
2018-04-08T08:50:10.957Z,87.90
2018-04-08T08:52:38.421Z,87.40
2018-04-08T08:55:05.881Z,88.80
2018-04-08T08:57:33.335Z,87.80
2018-04-08T09:00:00.793Z,87.80
2018-04-08T09:02:28.246Z,87.60
2018-04-08T09:04:55.717Z,88.30
2018-04-08T09:07:23.173Z,86.60
2018-04-08T09:09:50.654Z,87.10
2018-04-08T09:12:18.119Z,88.20
2018-04-08T09:14:45.597Z,88.40
2018-04-08T09:17:13.059Z,87.80
2018-04-08T09:19:45.030Z,86.30
2018-04-08T09:22:14.288Z,86.60
2018-04-08T09:24:43.647Z,87.00
2018-04-08T09:27:11.101Z,86.40
2018-04-08T09:29:38.615Z,86.20
2018-04-08T09:32:06.016Z,86.20
2018-04-08T09:34:33.485Z,84.90
2018-04-08T09:37:00.935Z,84.40
2018-04-08T09:39:28.394Z,80.80
2018-04-08T09:41:55.861Z,80.70
2018-04-08T09:44:23.307Z,80.60
2018-04-08T09:46:50.780Z,79.30
2018-04-08T09:49:18.243Z,80.50
2018-04-08T09:51:45.710Z,79.80
2018-04-08T09:54:13.149Z,80.10
2018-04-08T09:56:40.632Z,81.20
2018-04-08T09:59:08.094Z,80.70
2018-04-08T10:01:41.301Z,80.20
2018-04-08T10:04:08.746Z,80.30
2018-04-08T10:06:36.213Z,79.10
2018-04-08T10:09:03.676Z,78.90
2018-04-08T10:11:31.146Z,79.10
2018-04-08T10:13:58.586Z,78.00
2018-04-08T10:16:26.056Z,78.60
2018-04-08T10:19:05.887Z,79.10
2018-04-08T10:21:34.406Z,78.30
2018-04-08T10:24:01.901Z,78.20
2018-04-08T10:26:29.557Z,77.50
2018-04-08T10:28:57.033Z,76.60
2018-04-08T10:31:24.548Z,74.00
2018-04-08T10:33:52.021Z,75.30
2018-04-08T10:36:19.518Z,74.40
2018-04-08T10:38:47.021Z,76.00
2018-04-08T10:41:14.607Z,73.40
2018-04-08T10:43:42.092Z,73.90
2018-04-08T10:46:10.337Z,74.10
2018-04-08T10:48:38.640Z,73.60
2018-04-08T10:51:06.103Z,73.60
2018-04-08T10:53:33.694Z,72.10
2018-04-08T10:56:01.179Z,70.90
2018-04-08T10:58:28.678Z,69.60
2018-04-08T11:00:56.202Z,69.50
2018-04-08T11:03:23.720Z,71.10
2018-04-08T11:05:56.521Z,70.20
2018-04-08T11:08:23.979Z,70.00
2018-04-08T11:10:51.491Z,68.90
2018-04-08T11:13:20.134Z,67.90
2018-04-08T11:15:53.326Z,68.50
2018-04-08T11:18:20.784Z,68.90
2018-04-08T11:20:49.276Z,68.00
2018-04-08T11:23:22.233Z,67.30
2018-04-08T11:25:51.546Z,65.40
2018-04-08T11:28:19.012Z,65.40
2018-04-08T11:30:47.228Z,64.60
2018-04-08T11:33:40.056Z,62.80
2018-04-08T11:36:07.617Z,62.00
2018-04-08T11:38:35.119Z,62.60
2018-04-08T11:41:03.440Z,59.90
2018-04-08T11:43:30.928Z,59.90
2018-04-08T11:45:58.482Z,61.10
2018-04-08T11:48:25.952Z,61.20
2018-04-08T11:50:53.585Z,61.40
2018-04-08T11:53:21.065Z,61.50
2018-04-08T11:55:49.616Z,63.50
2018-04-08T11:58:25.478Z,63.40
2018-04-08T12:00:53.083Z,62.30
2018-04-08T12:03:20.570Z,61.80
2018-04-08T12:05:48.456Z,61.70
2018-04-08T12:08:16.730Z,59.80
2018-04-08T12:10:44.376Z,59.80
2018-04-08T12:16:07.078Z,63.70
2018-04-08T12:18:34.593Z,62.70
2018-04-08T12:21:02.254Z,62.20
2018-04-08T12:23:29.736Z,61.50
2018-04-08T12:25:57.258Z,59.60
2018-04-08T12:28:24.743Z,62.30
2018-04-08T12:30:52.335Z,60.40
2018-04-08T12:33:19.793Z,60.30
2018-04-08T12:35:47.247Z,60.80
2018-04-08T12:38:14.801Z,61.80
2018-04-08T12:40:42.508Z,65.10
2018-04-08T12:43:09.997Z,60.90
2018-04-08T12:45:37.556Z,60.80
2018-04-08T12:48:05.765Z,59.20
2018-04-08T12:50:33.515Z,59.20
2018-04-08T12:53:00.971Z,59.90
2018-04-08T12:55:28.465Z,59.80
2018-04-08T12:57:56.001Z,60.50
2018-04-08T13:00:23.462Z,60.20
2018-04-08T13:02:51.005Z,60.60
2018-04-08T13:05:18.476Z,61.70
2018-04-08T13:07:45.963Z,59.90
2018-04-08T13:10:13.420Z,58.40
2018-04-08T13:12:40.888Z,58.30
2018-04-08T13:15:08.356Z,60.30
2018-04-08T13:17:35.852Z,60.00
2018-04-08T13:20:03.341Z,59.30
2018-04-08T13:22:31.593Z,60.20
2018-04-08T13:24:59.054Z,60.20
2018-04-08T13:27:26.553Z,61.10
2018-04-08T13:29:54.048Z,60.40
2018-04-08T13:32:22.362Z,61.40
2018-04-08T13:34:49.884Z,61.40
2018-04-08T13:37:18.450Z,60.20
2018-04-08T13:39:45.928Z,61.10
2018-04-08T13:42:13.388Z,60.20
2018-04-08T13:44:40.843Z,60.00
2018-04-08T13:47:08.360Z,59.50
2018-04-08T13:49:37.855Z,60.50
2018-04-08T13:52:05.456Z,58.60
2018-04-08T13:54:33.709Z,59.40
2018-04-08T13:57:01.190Z,59.40
2018-04-08T13:59:28.688Z,58.60
2018-04-08T14:01:56.174Z,57.20
2018-04-08T14:04:23.651Z,57.90
2018-04-08T14:06:51.117Z,58.20
2018-04-08T14:09:18.650Z,57.20
2018-04-08T14:11:46.248Z,57.70
2018-04-08T14:14:13.756Z,58.30
2018-04-08T14:16:42.039Z,55.60
2018-04-08T14:19:10.315Z,55.20
2018-04-08T14:21:38.632Z,55.40
2018-04-08T14:24:06.233Z,55.40
2018-04-08T14:26:33.893Z,55.30
2018-04-08T14:29:01.369Z,53.30
2018-04-08T14:31:28.836Z,53.70
2018-04-08T14:33:58.372Z,52.40
2018-04-08T14:36:25.925Z,53.90
2018-04-08T14:38:53.419Z,52.40
2018-04-08T14:41:21.079Z,53.30
2018-04-08T14:43:48.576Z,52.20
2018-04-08T14:46:16.495Z,53.00
2018-04-08T14:48:44.808Z,50.70
2018-04-08T14:51:12.266Z,50.70
2018-04-08T14:53:39.787Z,51.40
2018-04-08T14:56:07.444Z,51.50
2018-04-08T14:58:35.002Z,50.70
2018-04-08T15:01:03.492Z,50.30
2018-04-08T15:03:31.048Z,50.10
2018-04-08T15:05:58.783Z,49.80
2018-04-08T15:08:26.542Z,50.00
2018-04-08T15:10:54.980Z,47.20
2018-04-08T15:13:22.502Z,47.10
2018-04-08T15:15:50.004Z,48.30
2018-04-08T15:18:17.678Z,48.20
2018-04-08T15:20:45.395Z,46.40
2018-04-08T15:23:13.012Z,45.20
2018-04-08T15:25:41.744Z,45.60
2018-04-08T15:28:09.974Z,46.10
2018-04-08T15:30:40.236Z,46.10
2018-04-08T15:33:07.755Z,44.10
2018-04-08T15:35:35.229Z,45.10
2018-04-08T15:38:02.718Z,45.50
2018-04-08T15:40:31.049Z,45.50
2018-04-08T15:42:58.561Z,45.60
2018-04-08T15:45:26.775Z,47.20
2018-04-08T15:47:54.234Z,47.10
2018-04-08T15:50:22.495Z,46.50
2018-04-08T15:52:50.045Z,46.50
2018-04-08T15:55:17.498Z,47.70
2018-04-08T15:57:45.738Z,47.40
2018-04-08T16:00:13.216Z,46.80
2018-04-08T16:02:40.685Z,46.60
2018-04-08T16:05:08.127Z,47.30
2018-04-08T16:07:35.570Z,47.00
2018-04-08T16:10:03.063Z,47.30
2018-04-08T16:12:30.556Z,48.70
2018-04-08T16:14:58.030Z,48.40
2018-04-08T16:17:26.236Z,48.50
2018-04-08T16:19:53.754Z,48.50
2018-04-08T16:22:21.532Z,47.90
2018-04-08T16:24:49.792Z,48.40
2018-04-08T16:27:17.252Z,48.30
2018-04-08T16:29:44.709Z,48.50
2018-04-08T16:32:16.109Z,47.80
2018-04-08T16:34:43.590Z,46.50
2018-04-08T16:37:11.932Z,46.80
2018-04-08T16:39:40.191Z,45.80
2018-04-08T16:42:07.649Z,45.80
2018-04-08T16:44:35.967Z,45.00
2018-04-08T16:47:04.289Z,45.30
2018-04-08T16:49:31.898Z,45.20
2018-04-08T16:51:59.527Z,46.00
2018-04-08T16:54:26.993Z,44.70
2018-04-08T16:56:55.417Z,45.70
2018-04-08T16:59:23.823Z,46.50
2018-04-08T17:01:51.294Z,46.40
2018-04-08T17:04:19.584Z,46.80
2018-04-08T17:06:47.079Z,46.70
2018-04-08T17:09:14.565Z,46.50
2018-04-08T17:11:42.024Z,46.90
2018-04-08T17:14:09.492Z,47.20
2018-04-08T17:16:36.969Z,47.70
2018-04-08T17:19:05.178Z,48.90
2018-04-08T17:21:32.701Z,48.90
2018-04-08T17:24:00.976Z,49.30
2018-04-08T17:26:28.525Z,49.30
2018-04-08T17:28:56.820Z,49.20
2018-04-08T17:31:24.280Z,49.90
2018-04-08T17:34:08.390Z,49.90
2018-04-08T17:36:35.983Z,50.60
2018-04-08T17:39:03.427Z,50.50
2018-04-08T17:41:30.917Z,51.30
2018-04-08T17:44:21.571Z,51.40
2018-04-08T17:46:49.024Z,52.50
2018-04-08T17:49:16.487Z,52.10
2018-04-08T17:51:43.947Z,52.40
2018-04-08T17:54:11.404Z,53.60
2018-04-08T17:56:39.634Z,54.90
2018-04-08T17:59:11.278Z,54.90
2018-04-08T18:01:38.755Z,55.80
2018-04-08T18:04:06.214Z,56.10
2018-04-08T18:06:33.747Z,57.00
2018-04-08T18:09:01.179Z,57.20
2018-04-08T18:11:28.616Z,57.60
2018-04-08T18:13:56.837Z,58.80
2018-04-08T18:16:24.570Z,58.80
2018-04-08T18:18:52.806Z,59.50
2018-04-08T18:21:20.276Z,59.50
2018-04-08T18:23:47.732Z,59.70
2018-04-08T18:26:16.013Z,59.90
2018-04-08T18:28:47.429Z,60.30
2018-04-08T18:31:16.460Z,60.10
2018-04-08T18:33:44.187Z,60.20
2018-04-08T18:36:12.785Z,60.00
2018-04-08T18:38:40.421Z,60.00
2018-04-08T18:41:09.127Z,60.30
2018-04-08T18:43:43.856Z,60.00
2018-04-08T18:46:12.099Z,60.00
2018-04-08T18:48:39.566Z,59.90
2018-04-08T18:51:07.015Z,60.50
2018-04-08T18:53:34.456Z,60.40
2018-04-08T18:56:02.686Z,60.70
2018-04-08T18:58:30.147Z,60.60
2018-04-08T19:00:57.657Z,61.10
2018-04-08T19:03:25.889Z,60.60
2018-04-08T19:05:53.419Z,60.40
2018-04-08T19:08:20.880Z,60.30
2018-04-08T19:10:48.335Z,60.30
2018-04-08T19:13:16.567Z,60.90
2018-04-08T19:15:44.069Z,60.90
2018-04-08T19:18:12.330Z,61.70
2018-04-08T19:20:45.623Z,61.70
2018-04-08T19:23:13.084Z,62.20
2018-04-08T19:25:40.547Z,62.70
2018-04-08T19:28:08.029Z,63.10
2018-04-08T19:30:36.244Z,63.60
2018-04-08T19:33:04.460Z,64.30
2018-04-08T19:35:31.927Z,64.30
2018-04-08T19:37:59.390Z,64.80
2018-04-08T19:40:26.855Z,66.00
2018-04-08T19:42:54.337Z,66.90
2018-04-08T19:45:21.811Z,67.40
2018-04-08T19:47:50.023Z,69.60
2018-04-08T19:50:17.502Z,69.40
2018-04-08T19:52:44.973Z,69.10
2018-04-08T19:55:12.525Z,69.80
2018-04-08T19:57:39.995Z,69.90
2018-04-08T20:00:07.448Z,70.00
2018-04-08T20:02:34.933Z,70.30
2018-04-08T20:05:02.792Z,70.50
2018-04-08T20:07:31.196Z,69.90
2018-04-08T20:09:58.653Z,69.90
2018-04-08T20:12:26.228Z,70.10
2018-04-08T20:14:53.677Z,70.60
2018-04-08T20:17:21.165Z,70.60
2018-04-08T20:19:49.369Z,71.20
2018-04-08T20:22:16.852Z,70.60
2018-04-08T20:24:44.306Z,70.70
2018-04-08T20:27:11.771Z,71.30
2018-04-08T20:29:39.223Z,71.50
2018-04-08T20:32:06.978Z,71.10
2018-04-08T20:34:35.183Z,72.60
2018-04-08T20:37:02.674Z,72.60
2018-04-08T20:39:30.135Z,72.50
2018-04-08T20:41:57.601Z,73.80
2018-04-08T20:44:25.673Z,74.30
2018-04-08T20:46:53.133Z,75.10
2018-04-08T20:49:20.601Z,74.80
2018-04-08T20:51:48.079Z,75.00
2018-04-08T20:54:15.550Z,74.00
2018-04-08T20:56:42.971Z,74.60
2018-04-08T20:59:10.448Z,75.00
2018-04-08T21:01:37.901Z,74.50
2018-04-08T21:04:05.368Z,73.90
2018-04-08T21:06:32.825Z,73.90
2018-04-08T21:09:00.295Z,73.70
2018-04-08T21:11:27.750Z,74.50
2018-04-08T21:13:58.676Z,75.00
2018-04-08T21:16:26.159Z,76.00
2018-04-08T21:18:53.619Z,75.40
2018-04-08T21:21:21.090Z,74.90
2018-04-08T21:23:48.550Z,73.60
2018-04-08T21:26:16.043Z,73.30
2018-04-08T21:28:44.261Z,73.00
2018-04-08T21:31:11.722Z,73.00
2018-04-08T21:33:39.162Z,73.50
2018-04-08T21:36:06.671Z,73.60
2018-04-08T21:38:34.880Z,73.90
2018-04-08T21:41:02.327Z,73.90
2018-04-08T21:43:29.766Z,73.90
2018-04-08T21:45:57.237Z,74.40
2018-04-08T21:48:24.699Z,73.90
2018-04-08T21:50:52.168Z,73.60
2018-04-08T21:53:19.614Z,73.10
2018-04-08T21:55:47.123Z,72.30
2018-04-08T21:58:14.571Z,72.10
2018-04-08T22:00:41.995Z,71.80
2018-04-08T22:03:09.433Z,71.30
2018-04-08T22:05:36.898Z,71.10
2018-04-08T22:08:04.352Z,70.70
2018-04-08T22:10:31.820Z,70.60
2018-04-08T22:13:00.043Z,70.20
2018-04-08T22:15:28.253Z,71.30
2018-04-08T22:17:55.716Z,71.30
2018-04-08T22:20:23.181Z,71.70
2018-04-08T22:22:50.640Z,71.90
2018-04-08T22:25:18.117Z,71.90
2018-04-08T22:27:45.570Z,72.30
2018-04-08T22:30:13.032Z,72.60
2018-04-08T22:32:40.481Z,72.70
2018-04-08T22:35:07.933Z,72.60
2018-04-08T22:37:35.372Z,72.40
2018-04-08T22:40:02.810Z,72.80
2018-04-08T22:42:31.050Z,72.70
2018-04-08T22:44:58.505Z,72.00
2018-04-08T22:47:25.979Z,71.70
2018-04-08T22:49:53.430Z,71.70
2018-04-08T22:52:20.892Z,72.30
2018-04-08T22:54:48.359Z,72.90
2018-04-08T22:57:15.804Z,73.20
2018-04-08T22:59:43.244Z,73.40
2018-04-08T23:02:10.719Z,73.50
2018-04-08T23:04:38.165Z,73.90
2018-04-08T23:07:05.613Z,73.80
2018-04-08T23:09:33.833Z,74.70
2018-04-08T23:12:01.305Z,74.70
2018-04-08T23:14:28.758Z,75.20
2018-04-08T23:16:56.210Z,74.60
2018-04-08T23:19:23.676Z,74.60
2018-04-08T23:21:51.141Z,76.70
2018-04-08T23:24:18.583Z,76.80
2018-04-08T23:26:46.047Z,75.90
2018-04-08T23:29:13.498Z,77.00
2018-04-08T23:31:41.730Z,77.90
2018-04-08T23:34:09.179Z,77.90
2018-04-08T23:36:36.648Z,78.60
2018-04-08T23:39:04.091Z,78.90
2018-04-08T23:41:31.552Z,79.50
2018-04-08T23:43:59.013Z,79.80
2018-04-08T23:46:26.475Z,79.70
2018-04-08T23:48:53.944Z,79.70
2018-04-08T23:51:21.413Z,80.10
2018-04-08T23:53:48.886Z,79.70
2018-04-08T23:56:16.330Z,80.10
2018-04-08T23:58:43.798Z,81.00
